sensor_id;sensor_type;location;lat;lon;timestamp;pressure;altitude;pressure_sealevel;temperature;humidity
35676;BME280;21790;42.668;23.298;2023-03-29T00:01:36;95032.66;;;7.96;36.45
35676;BME280;21790;42.668;23.298;2023-03-29T00:04:06;95008.81;;;7.77;36.40
35676;BME280;21790;42.668;23.298;2023-03-29T00:06:37;95044.56;;;8.18;35.86
35676;BME280;21790;42.668;23.298;2023-03-29T00:09:06;95032.41;;;7.90;35.85
35676;BME280;21790;42.668;23.298;2023-03-29T00:11:34;95050.59;;;8.01;36.02
35676;BME280;21790;42.668;23.298;2023-03-29T00:14:02;95047.31;;;8.06;35.86
35676;BME280;21790;42.668;23.298;2023-03-29T00:16:27;95045.75;;;8.05;36.16
35676;BME280;21790;42.668;23.298;2023-03-29T00:18:53;95051.94;;;8.09;35.80
35676;BME280;21790;42.668;23.298;2023-03-29T00:21:22;95057.13;;;8.19;35.91
35676;BME280;21790;42.668;23.298;2023-03-29T00:23:48;95052.16;;;8.02;36.11
35676;BME280;21790;42.668;23.298;2023-03-29T00:26:14;95047.59;;;7.95;36.17
35676;BME280;21790;42.668;23.298;2023-03-29T00:28:40;95042.53;;;7.93;35.79
35676;BME280;21790;42.668;23.298;2023-03-29T00:31:13;95052.47;;;8.04;35.99
35676;BME280;21790;42.668;23.298;2023-03-29T00:33:40;95053.13;;;7.95;35.83
35676;BME280;21790;42.668;23.298;2023-03-29T00:36:06;95052.53;;;7.87;35.57
35676;BME280;21790;42.668;23.298;2023-03-29T00:38:33;95055.31;;;8.00;35.43
35676;BME280;21790;42.668;23.298;2023-03-29T00:40:59;95056.72;;;7.92;34.98
35676;BME280;21790;42.668;23.298;2023-03-29T00:43:25;95054.56;;;7.99;35.04
35676;BME280;21790;42.668;23.298;2023-03-29T00:45:51;95047.13;;;7.84;35.05
35676;BME280;21790;42.668;23.298;2023-03-29T00:48:21;95052.41;;;7.91;35.54
35676;BME280;21790;42.668;23.298;2023-03-29T00:50:54;95048.56;;;7.88;35.64
35676;BME280;21790;42.668;23.298;2023-03-29T00:53:37;95051.44;;;7.97;35.13
35676;BME280;21790;42.668;23.298;2023-03-29T00:56:12;95053.66;;;8.03;35.08
35676;BME280;21790;42.668;23.298;2023-03-29T00:58:55;95055.41;;;7.96;35.37
35676;BME280;21790;42.668;23.298;2023-03-29T01:01:35;95054.19;;;7.97;35.08
35676;BME280;21790;42.668;23.298;2023-03-29T01:04:43;95059.31;;;8.12;35.15
35676;BME280;21790;42.668;23.298;2023-03-29T01:07:17;95054.97;;;7.98;35.07
35676;BME280;21790;42.668;23.298;2023-03-29T01:09:50;95068.31;;;7.99;35.30
35676;BME280;21790;42.668;23.298;2023-03-29T01:12:25;95062.97;;;7.80;35.77
35676;BME280;21790;42.668;23.298;2023-03-29T01:15:10;95068.31;;;7.71;36.15
35676;BME280;21790;42.668;23.298;2023-03-29T01:17:38;95068.06;;;7.65;35.82
35676;BME280;21790;42.668;23.298;2023-03-29T01:22:47;95070.59;;;7.88;35.26
35676;BME280;21790;42.668;23.298;2023-03-29T01:25:29;95064.66;;;7.90;35.51
35676;BME280;21790;42.668;23.298;2023-03-29T01:28:01;95077.09;;;7.94;35.73
35676;BME280;21790;42.668;23.298;2023-03-29T01:33:42;95072.81;;;7.93;35.01
35676;BME280;21790;42.668;23.298;2023-03-29T01:36:15;95063.97;;;7.86;35.33
35676;BME280;21790;42.668;23.298;2023-03-29T01:38:59;95072.31;;;7.82;35.71
35676;BME280;21790;42.668;23.298;2023-03-29T01:44:07;95072.06;;;7.77;35.30
35676;BME280;21790;42.668;23.298;2023-03-29T01:46:53;95072.59;;;7.72;35.42
35676;BME280;21790;42.668;23.298;2023-03-29T01:49:27;95063.38;;;7.49;35.69
35676;BME280;21790;42.668;23.298;2023-03-29T01:51:58;95051.25;;;7.63;35.70
35676;BME280;21790;42.668;23.298;2023-03-29T01:54:38;95065.97;;;7.85;35.20
35676;BME280;21790;42.668;23.298;2023-03-29T01:57:07;95054.41;;;7.62;35.27
35676;BME280;21790;42.668;23.298;2023-03-29T01:59:37;95061.25;;;7.70;35.05
35676;BME280;21790;42.668;23.298;2023-03-29T02:02:06;95067.34;;;7.77;34.82
35676;BME280;21790;42.668;23.298;2023-03-29T02:04:38;95069.63;;;7.66;35.33
35676;BME280;21790;42.668;23.298;2023-03-29T02:07:07;95074.69;;;7.68;35.23
35676;BME280;21790;42.668;23.298;2023-03-29T02:09:35;95066.69;;;7.73;35.12
35676;BME280;21790;42.668;23.298;2023-03-29T02:12:02;95073.56;;;7.94;34.57
35676;BME280;21790;42.668;23.298;2023-03-29T02:14:30;95066.88;;;7.66;34.79
35676;BME280;21790;42.668;23.298;2023-03-29T02:16:55;95073.78;;;7.58;35.20
35676;BME280;21790;42.668;23.298;2023-03-29T02:19:22;95076.34;;;7.49;34.87
35676;BME280;21790;42.668;23.298;2023-03-29T02:22:03;95071.97;;;7.80;34.74
35676;BME280;21790;42.668;23.298;2023-03-29T02:24:32;95082.47;;;7.40;34.77
35676;BME280;21790;42.668;23.298;2023-03-29T02:27:00;95092.19;;;7.29;35.23
35676;BME280;21790;42.668;23.298;2023-03-29T02:29:27;95080.50;;;7.41;34.72
35676;BME280;21790;42.668;23.298;2023-03-29T02:31:56;95075.28;;;7.30;34.92
35676;BME280;21790;42.668;23.298;2023-03-29T02:34:29;95085.78;;;7.48;35.06
35676;BME280;21790;42.668;23.298;2023-03-29T02:37:04;95089.75;;;7.63;34.59
35676;BME280;21790;42.668;23.298;2023-03-29T02:39:32;95089.50;;;7.57;34.47
35676;BME280;21790;42.668;23.298;2023-03-29T02:41:59;95090.09;;;7.49;34.80
35676;BME280;21790;42.668;23.298;2023-03-29T02:44:33;95085.75;;;7.64;34.67
35676;BME280;21790;42.668;23.298;2023-03-29T02:47:24;95099.09;;;7.66;34.46
35676;BME280;21790;42.668;23.298;2023-03-29T02:49:53;95108.22;;;7.63;34.65
35676;BME280;21790;42.668;23.298;2023-03-29T02:52:22;95111.75;;;7.63;34.62
35676;BME280;21790;42.668;23.298;2023-03-29T02:54:52;95103.16;;;7.61;34.82
35676;BME280;21790;42.668;23.298;2023-03-29T02:57:21;95109.75;;;7.47;34.87
35676;BME280;21790;42.668;23.298;2023-03-29T02:59:54;95114.41;;;7.50;34.82
35676;BME280;21790;42.668;23.298;2023-03-29T03:02:22;95115.38;;;7.28;35.30
35676;BME280;21790;42.668;23.298;2023-03-29T03:04:50;95113.28;;;7.48;35.06
35676;BME280;21790;42.668;23.298;2023-03-29T03:07:18;95118.13;;;7.28;35.66
35676;BME280;21790;42.668;23.298;2023-03-29T03:09:44;95124.81;;;7.10;35.97
35676;BME280;21790;42.668;23.298;2023-03-29T03:12:11;95121.53;;;6.99;36.52
35676;BME280;21790;42.668;23.298;2023-03-29T03:14:36;95123.47;;;7.19;36.38
35676;BME280;21790;42.668;23.298;2023-03-29T03:17:02;95121.91;;;7.34;36.03
35676;BME280;21790;42.668;23.298;2023-03-29T03:19:28;95127.09;;;6.80;36.48
35676;BME280;21790;42.668;23.298;2023-03-29T03:21:54;95132.53;;;6.99;36.44
35676;BME280;21790;42.668;23.298;2023-03-29T03:24:23;95137.72;;;7.13;36.42
35676;BME280;21790;42.668;23.298;2023-03-29T03:26:48;95144.38;;;6.96;36.21
35676;BME280;21790;42.668;23.298;2023-03-29T03:29:14;95139.19;;;6.82;36.61
35676;BME280;21790;42.668;23.298;2023-03-29T03:31:40;95140.47;;;8.07;55.95
35676;BME280;21790;42.668;23.298;2023-03-29T03:34:06;95144.09;;;8.87;42.21
35676;BME280;21790;42.668;23.298;2023-03-29T03:36:35;95144.44;;;8.19;34.70
35676;BME280;21790;42.668;23.298;2023-03-29T03:39:02;95150.72;;;7.90;34.34
35676;BME280;21790;42.668;23.298;2023-03-29T03:41:31;95158.31;;;7.70;34.51
35676;BME280;21790;42.668;23.298;2023-03-29T03:44:00;95157.47;;;7.41;34.80
35676;BME280;21790;42.668;23.298;2023-03-29T03:46:28;95171.00;;;6.99;35.50
35676;BME280;21790;42.668;23.298;2023-03-29T03:48:54;95158.94;;;7.29;35.09
35676;BME280;21790;42.668;23.298;2023-03-29T03:56:30;95165.88;;;7.18;34.89
35676;BME280;21790;42.668;23.298;2023-03-29T03:58:55;95173.09;;;7.11;34.46
35676;BME280;21790;42.668;23.298;2023-03-29T04:01:22;95176.50;;;6.99;34.84
35676;BME280;21790;42.668;23.298;2023-03-29T04:03:48;95174.91;;;7.18;34.29
35676;BME280;21790;42.668;23.298;2023-03-29T04:06:14;95169.81;;;7.17;34.20
35676;BME280;21790;42.668;23.298;2023-03-29T04:08:39;95164.84;;;7.28;34.08
35676;BME280;21790;42.668;23.298;2023-03-29T04:11:06;95170.78;;;7.26;33.75
35676;BME280;21790;42.668;23.298;2023-03-29T04:13:32;95166.31;;;7.32;33.68
35676;BME280;21790;42.668;23.298;2023-03-29T04:15:57;95174.66;;;7.29;33.66
35676;BME280;21790;42.668;23.298;2023-03-29T04:18:23;95179.44;;;7.08;34.00
35676;BME280;21790;42.668;23.298;2023-03-29T04:20:49;95175.81;;;6.95;33.81
35676;BME280;21790;42.668;23.298;2023-03-29T04:23:15;95186.41;;;6.77;34.34
35676;BME280;21790;42.668;23.298;2023-03-29T04:25:40;95188.34;;;6.96;33.86
35676;BME280;21790;42.668;23.298;2023-03-29T04:28:06;95180.28;;;7.05;34.16
35676;BME280;21790;42.668;23.298;2023-03-29T04:30:32;95186.41;;;7.13;33.85
35676;BME280;21790;42.668;23.298;2023-03-29T04:32:58;95194.94;;;7.35;33.61
35676;BME280;21790;42.668;23.298;2023-03-29T04:35:23;95182.81;;;7.32;33.58
35676;BME280;21790;42.668;23.298;2023-03-29T04:37:49;95182.75;;;7.36;33.44
35676;BME280;21790;42.668;23.298;2023-03-29T04:40:15;95169.16;;;7.45;33.27
35676;BME280;21790;42.668;23.298;2023-03-29T04:42:44;95185.91;;;7.34;33.53
35676;BME280;21790;42.668;23.298;2023-03-29T04:45:14;95187.63;;;7.44;33.54
35676;BME280;21790;42.668;23.298;2023-03-29T04:47:42;95194.06;;;7.22;33.77
35676;BME280;21790;42.668;23.298;2023-03-29T04:50:09;95194.16;;;7.34;33.67
35676;BME280;21790;42.668;23.298;2023-03-29T04:52:35;95189.19;;;7.45;33.71
35676;BME280;21790;42.668;23.298;2023-03-29T04:55:02;95187.63;;;7.77;33.29
35676;BME280;21790;42.668;23.298;2023-03-29T04:57:28;95202.94;;;7.62;32.83
35676;BME280;21790;42.668;23.298;2023-03-29T04:59:54;95206.97;;;7.73;33.40
35676;BME280;21790;42.668;23.298;2023-03-29T05:02:19;95206.38;;;7.66;33.04
35676;BME280;21790;42.668;23.298;2023-03-29T05:04:46;95211.88;;;7.66;32.71
35676;BME280;21790;42.668;23.298;2023-03-29T05:07:13;95207.91;;;7.67;33.31
35676;BME280;21790;42.668;23.298;2023-03-29T05:09:40;95212.09;;;8.04;32.29
35676;BME280;21790;42.668;23.298;2023-03-29T05:12:06;95212.84;;;8.20;31.87
35676;BME280;21790;42.668;23.298;2023-03-29T05:14:32;95223.81;;;7.59;32.64
35676;BME280;21790;42.668;23.298;2023-03-29T05:16:58;95233.88;;;7.66;32.09
35676;BME280;21790;42.668;23.298;2023-03-29T05:19:24;95228.88;;;7.93;32.48
35676;BME280;21790;42.668;23.298;2023-03-29T05:21:50;95233.44;;;7.99;31.96
35676;BME280;21790;42.668;23.298;2023-03-29T05:24:17;95238.19;;;7.67;32.09
35676;BME280;21790;42.668;23.298;2023-03-29T05:26:43;95246.00;;;7.68;31.94
35676;BME280;21790;42.668;23.298;2023-03-29T05:29:09;95252.03;;;7.63;32.85
35676;BME280;21790;42.668;23.298;2023-03-29T05:31:34;95246.69;;;7.56;32.93
35676;BME280;21790;42.668;23.298;2023-03-29T05:34:02;95235.91;;;8.26;31.82
35676;BME280;21790;42.668;23.298;2023-03-29T05:36:28;95239.00;;;8.45;31.83
35676;BME280;21790;42.668;23.298;2023-03-29T05:38:54;95243.25;;;8.62;31.45
35676;BME280;21790;42.668;23.298;2023-03-29T05:41:21;95245.19;;;8.90;31.39
35676;BME280;21790;42.668;23.298;2023-03-29T05:43:48;95249.31;;;8.69;31.46
35676;BME280;21790;42.668;23.298;2023-03-29T05:46:13;95238.09;;;8.48;32.13
35676;BME280;21790;42.668;23.298;2023-03-29T05:48:39;95240.44;;;8.78;31.29
35676;BME280;21790;42.668;23.298;2023-03-29T05:51:05;95240.13;;;8.89;31.57
35676;BME280;21790;42.668;23.298;2023-03-29T05:53:31;95250.06;;;8.99;30.83
35676;BME280;21790;42.668;23.298;2023-03-29T05:55:57;95247.56;;;9.04;30.88
35676;BME280;21790;42.668;23.298;2023-03-29T05:58:23;95244.25;;;9.09;31.08
35676;BME280;21790;42.668;23.298;2023-03-29T06:00:51;95249.44;;;9.20;30.91
35676;BME280;21790;42.668;23.298;2023-03-29T06:03:22;95248.78;;;9.16;30.47
35676;BME280;21790;42.668;23.298;2023-03-29T06:05:59;95253.38;;;9.06;30.58
35676;BME280;21790;42.668;23.298;2023-03-29T06:08:27;95247.56;;;8.75;30.85
35676;BME280;21790;42.668;23.298;2023-03-29T06:11:01;95252.69;;;8.90;30.73
35676;BME280;21790;42.668;23.298;2023-03-29T06:13:28;95254.72;;;8.73;31.00
35676;BME280;21790;42.668;23.298;2023-03-29T06:15:53;95247.34;;;8.70;30.98
35676;BME280;21790;42.668;23.298;2023-03-29T06:18:19;95261.69;;;8.77;30.82
35676;BME280;21790;42.668;23.298;2023-03-29T06:20:48;95258.34;;;8.99;30.87
35676;BME280;21790;42.668;23.298;2023-03-29T06:23:15;95258.78;;;8.97;30.91
35676;BME280;21790;42.668;23.298;2023-03-29T06:25:42;95265.72;;;9.02;30.52
35676;BME280;21790;42.668;23.298;2023-03-29T06:28:08;95274.19;;;8.95;30.74
35676;BME280;21790;42.668;23.298;2023-03-29T06:30:34;95271.25;;;9.02;30.39
35676;BME280;21790;42.668;23.298;2023-03-29T06:32:59;95277.53;;;9.02;30.54
35676;BME280;21790;42.668;23.298;2023-03-29T06:35:25;95279.88;;;8.75;31.50
35676;BME280;21790;42.668;23.298;2023-03-29T06:37:51;95288.91;;;8.75;30.72
35676;BME280;21790;42.668;23.298;2023-03-29T06:40:19;95288.66;;;8.70;30.86
35676;BME280;21790;42.668;23.298;2023-03-29T06:42:46;95297.00;;;8.82;30.82
35676;BME280;21790;42.668;23.298;2023-03-29T06:45:12;95284.59;;;8.74;31.29
35676;BME280;21790;42.668;23.298;2023-03-29T06:47:38;95294.75;;;8.49;30.72
35676;BME280;21790;42.668;23.298;2023-03-29T06:50:05;95301.78;;;8.66;30.59
35676;BME280;21790;42.668;23.298;2023-03-29T06:52:32;95300.94;;;8.81;30.44
35676;BME280;21790;42.668;23.298;2023-03-29T06:54:57;95300.91;;;8.98;30.64
35676;BME280;21790;42.668;23.298;2023-03-29T06:57:26;95295.34;;;8.85;30.43
35676;BME280;21790;42.668;23.298;2023-03-29T06:59:53;95288.91;;;9.04;30.17
35676;BME280;21790;42.668;23.298;2023-03-29T07:02:19;95294.13;;;9.28;29.97
35676;BME280;21790;42.668;23.298;2023-03-29T07:04:44;95295.91;;;9.34;29.86
35676;BME280;21790;42.668;23.298;2023-03-29T07:07:11;95301.66;;;9.40;29.52
35676;BME280;21790;42.668;23.298;2023-03-29T07:09:45;95295.13;;;9.34;29.26
35676;BME280;21790;42.668;23.298;2023-03-29T07:12:20;95301.84;;;9.20;30.22
35676;BME280;21790;42.668;23.298;2023-03-29T07:14:46;95302.09;;;9.51;30.23
35676;BME280;21790;42.668;23.298;2023-03-29T07:17:13;95302.34;;;9.69;29.53
35676;BME280;21790;42.668;23.298;2023-03-29T07:19:39;95304.00;;;9.66;29.44
35676;BME280;21790;42.668;23.298;2023-03-29T07:22:04;95307.84;;;9.56;29.44
35676;BME280;21790;42.668;23.298;2023-03-29T07:24:30;95307.16;;;9.27;29.02
35676;BME280;21790;42.668;23.298;2023-03-29T07:26:56;95308.09;;;9.08;29.37
35676;BME280;21790;42.668;23.298;2023-03-29T07:29:23;95297.19;;;9.17;29.25
35676;BME280;21790;42.668;23.298;2023-03-29T07:31:48;95306.28;;;9.30;29.38
35676;BME280;21790;42.668;23.298;2023-03-29T07:34:15;95311.25;;;9.35;29.18
35676;BME280;21790;42.668;23.298;2023-03-29T07:36:42;95299.13;;;9.45;29.26
35676;BME280;21790;42.668;23.298;2023-03-29T07:39:09;95297.38;;;9.51;29.90
35676;BME280;21790;42.668;23.298;2023-03-29T07:41:37;95290.41;;;9.47;30.18
35676;BME280;21790;42.668;23.298;2023-03-29T07:44:02;95293.50;;;9.61;30.56
35676;BME280;21790;42.668;23.298;2023-03-29T07:46:34;95287.34;;;9.70;29.63
35676;BME280;21790;42.668;23.298;2023-03-29T07:49:01;95278.63;;;9.84;28.89
35676;BME280;21790;42.668;23.298;2023-03-29T07:51:27;95272.72;;;10.20;29.15
35676;BME280;21790;42.668;23.298;2023-03-29T07:53:53;95281.97;;;10.52;28.59
35676;BME280;21790;42.668;23.298;2023-03-29T07:56:19;95277.38;;;10.36;28.05
35676;BME280;21790;42.668;23.298;2023-03-29T07:58:45;95270.84;;;10.64;28.69
35676;BME280;21790;42.668;23.298;2023-03-29T08:01:11;95273.22;;;10.75;27.13
35676;BME280;21790;42.668;23.298;2023-03-29T08:03:40;95269.34;;;10.85;27.76
35676;BME280;21790;42.668;23.298;2023-03-29T08:06:06;95271.59;;;10.99;27.81
35676;BME280;21790;42.668;23.298;2023-03-29T08:08:32;95262.13;;;11.09;27.37
35676;BME280;21790;42.668;23.298;2023-03-29T08:10:58;95265.88;;;11.46;27.82
35676;BME280;21790;42.668;23.298;2023-03-29T08:13:24;95264.25;;;11.58;27.23
35676;BME280;21790;42.668;23.298;2023-03-29T08:15:49;95252.91;;;11.34;27.05
35676;BME280;21790;42.668;23.298;2023-03-29T08:18:16;95253.13;;;11.49;26.44
35676;BME280;21790;42.668;23.298;2023-03-29T08:20:41;95248.84;;;11.57;26.18
35676;BME280;21790;42.668;23.298;2023-03-29T08:23:07;95251.59;;;11.79;26.78
35676;BME280;21790;42.668;23.298;2023-03-29T08:25:33;95256.00;;;11.67;25.20
35676;BME280;21790;42.668;23.298;2023-03-29T08:27:59;95244.28;;;11.94;26.21
35676;BME280;21790;42.668;23.298;2023-03-29T08:30:25;95242.91;;;11.98;26.22
35676;BME280;21790;42.668;23.298;2023-03-29T08:32:50;95231.91;;;12.53;26.18
35676;BME280;21790;42.668;23.298;2023-03-29T08:35:17;95231.63;;;12.69;25.64
35676;BME280;21790;42.668;23.298;2023-03-29T08:37:42;95249.81;;;12.70;25.46
35676;BME280;21790;42.668;23.298;2023-03-29T08:40:10;95234.06;;;12.31;25.47
35676;BME280;21790;42.668;23.298;2023-03-29T08:50:55;95238.34;;;13.05;24.29
35676;BME280;21790;42.668;23.298;2023-03-29T08:53:45;95222.91;;;13.40;23.20
35676;BME280;21790;42.668;23.298;2023-03-29T08:56:17;95234.78;;;13.31;23.12
35676;BME280;21790;42.668;23.298;2023-03-29T08:58:45;95234.38;;;13.24;22.29
35676;BME280;21790;42.668;23.298;2023-03-29T09:01:12;95231.31;;;12.76;23.70
35676;BME280;21790;42.668;23.298;2023-03-29T09:06:11;95228.50;;;13.31;23.34
35676;BME280;21790;42.668;23.298;2023-03-29T09:08:43;95231.88;;;13.26;23.02
35676;BME280;21790;42.668;23.298;2023-03-29T09:16:36;95228.69;;;13.60;23.36
35676;BME280;21790;42.668;23.298;2023-03-29T09:21:42;95219.84;;;13.80;22.53
35676;BME280;21790;42.668;23.298;2023-03-29T09:26:59;95214.19;;;13.65;22.27
35676;BME280;21790;42.668;23.298;2023-03-29T09:31:52;95212.38;;;13.53;22.53
35676;BME280;21790;42.668;23.298;2023-03-29T09:34:21;95212.38;;;13.86;23.42
35676;BME280;21790;42.668;23.298;2023-03-29T09:36:52;95212.44;;;14.10;22.85
35676;BME280;21790;42.668;23.298;2023-03-29T09:39:17;95199.34;;;14.25;21.54
35676;BME280;21790;42.668;23.298;2023-03-29T09:44:28;95214.28;;;14.37;21.78
35676;BME280;21790;42.668;23.298;2023-03-29T09:47:43;95206.59;;;14.55;22.12
35676;BME280;21790;42.668;23.298;2023-03-29T09:49:43;95188.41;;;14.69;22.81
35676;BME280;21790;42.668;23.298;2023-03-29T09:52:14;95205.72;;;15.02;22.14
35676;BME280;21790;42.668;23.298;2023-03-29T09:54:41;95201.06;;;14.70;19.52
35676;BME280;21790;42.668;23.298;2023-03-29T09:57:10;95196.41;;;14.52;19.66
35676;BME280;21790;42.668;23.298;2023-03-29T09:59:36;95210.19;;;14.23;19.66
35676;BME280;21790;42.668;23.298;2023-03-29T10:02:09;95212.63;;;14.54;19.23
35676;BME280;21790;42.668;23.298;2023-03-29T10:04:36;95206.06;;;14.42;19.85
35676;BME280;21790;42.668;23.298;2023-03-29T10:07:02;95202.19;;;14.63;20.04
35676;BME280;21790;42.668;23.298;2023-03-29T10:09:28;95213.88;;;14.53;20.32
35676;BME280;21790;42.668;23.298;2023-03-29T10:11:55;95207.94;;;14.60;19.45
35676;BME280;21790;42.668;23.298;2023-03-29T10:14:28;95203.59;;;14.44;19.20
35676;BME280;21790;42.668;23.298;2023-03-29T10:16:56;95204.72;;;14.76;20.12
35676;BME280;21790;42.668;23.298;2023-03-29T10:19:25;95190.38;;;14.54;20.16
35676;BME280;21790;42.668;23.298;2023-03-29T10:21:51;95193.50;;;14.71;19.78
35676;BME280;21790;42.668;23.298;2023-03-29T10:24:21;95199.00;;;14.94;19.75
35676;BME280;21790;42.668;23.298;2023-03-29T10:26:48;95182.06;;;14.69;19.08
35676;BME280;21790;42.668;23.298;2023-03-29T10:29:23;95194.50;;;14.58;18.61
35676;BME280;21790;42.668;23.298;2023-03-29T10:31:49;95183.19;;;14.62;19.49
35676;BME280;21790;42.668;23.298;2023-03-29T10:34:15;95173.41;;;15.05;19.81
35676;BME280;21790;42.668;23.298;2023-03-29T10:36:43;95179.81;;;14.96;19.79
35676;BME280;21790;42.668;23.298;2023-03-29T10:39:09;95183.06;;;14.95;20.40
35676;BME280;21790;42.668;23.298;2023-03-29T10:41:36;95168.19;;;15.13;19.62
35676;BME280;21790;42.668;23.298;2023-03-29T10:44:03;95170.59;;;15.49;19.07
35676;BME280;21790;42.668;23.298;2023-03-29T10:46:29;95170.81;;;15.16;18.61
35676;BME280;21790;42.668;23.298;2023-03-29T10:48:56;95169.34;;;15.35;19.03
35676;BME280;21790;42.668;23.298;2023-03-29T10:51:23;95163.59;;;15.24;18.91
35676;BME280;21790;42.668;23.298;2023-03-29T10:53:48;95167.63;;;15.53;19.43
35676;BME280;21790;42.668;23.298;2023-03-29T11:01:10;95155.72;;;15.23;19.33
35676;BME280;21790;42.668;23.298;2023-03-29T11:04:18;95151.03;;;15.14;19.00
35676;BME280;21790;42.668;23.298;2023-03-29T11:06:39;95150.59;;;15.50;17.92
35676;BME280;21790;42.668;23.298;2023-03-29T11:17:19;95134.66;;;15.51;19.24
35676;BME280;21790;42.668;23.298;2023-03-29T11:19:55;95132.69;;;15.37;18.28
35676;BME280;21790;42.668;23.298;2023-03-29T11:22:40;95134.31;;;15.29;18.91
35676;BME280;21790;42.668;23.298;2023-03-29T11:25:35;95133.53;;;15.43;18.76
35676;BME280;21790;42.668;23.298;2023-03-29T11:28:01;95152.25;;;15.57;19.44
35676;BME280;21790;42.668;23.298;2023-03-29T11:38:18;95144.09;;;14.95;18.18
35676;BME280;21790;42.668;23.298;2023-03-29T11:41:00;95146.59;;;14.93;18.74
35676;BME280;21790;42.668;23.298;2023-03-29T11:43:37;95146.88;;;14.65;19.14
35676;BME280;21790;42.668;23.298;2023-03-29T11:46:19;95136.69;;;14.62;19.48
35676;BME280;21790;42.668;23.298;2023-03-29T11:48:48;95130.59;;;14.88;19.10
35676;BME280;21790;42.668;23.298;2023-03-29T11:51:20;95130.38;;;14.91;19.49
35676;BME280;21790;42.668;23.298;2023-03-29T11:53:49;95126.81;;;14.91;19.01
35676;BME280;21790;42.668;23.298;2023-03-29T11:56:34;95122.44;;;14.99;19.11
35676;BME280;21790;42.668;23.298;2023-03-29T11:59:04;95119.63;;;14.84;19.70
35676;BME280;21790;42.668;23.298;2023-03-29T12:01:34;95124.16;;;14.82;19.40
35676;BME280;21790;42.668;23.298;2023-03-29T12:04:05;95106.78;;;14.87;19.94
35676;BME280;21790;42.668;23.298;2023-03-29T12:06:44;95103.22;;;14.72;19.26
35676;BME280;21790;42.668;23.298;2023-03-29T12:09:20;95115.59;;;14.71;19.81
35676;BME280;21790;42.668;23.298;2023-03-29T12:12:00;95115.63;;;15.00;20.10
35676;BME280;21790;42.668;23.298;2023-03-29T12:14:28;95110.81;;;15.15;19.18
35676;BME280;21790;42.668;23.298;2023-03-29T12:17:00;95110.31;;;15.31;19.11
35676;BME280;21790;42.668;23.298;2023-03-29T12:19:42;95113.53;;;15.44;18.88
35676;BME280;21790;42.668;23.298;2023-03-29T12:22:09;95108.22;;;15.26;19.50
35676;BME280;21790;42.668;23.298;2023-03-29T12:24:35;95111.94;;;15.38;19.62
35676;BME280;21790;42.668;23.298;2023-03-29T12:27:10;95117.41;;;15.32;17.98
35676;BME280;21790;42.668;23.298;2023-03-29T12:40:21;95118.78;;;15.07;18.63
35676;BME280;21790;42.668;23.298;2023-03-29T12:42:57;95124.13;;;15.11;18.14
35676;BME280;21790;42.668;23.298;2023-03-29T12:45:28;95117.63;;;14.70;18.72
35676;BME280;21790;42.668;23.298;2023-03-29T12:47:56;95121.47;;;14.73;18.70
35676;BME280;21790;42.668;23.298;2023-03-29T12:50:43;95122.09;;;14.53;18.71
35676;BME280;21790;42.668;23.298;2023-03-29T12:53:24;95120.09;;;14.68;19.29
35676;BME280;21790;42.668;23.298;2023-03-29T12:55:56;95126.13;;;14.52;19.77
35676;BME280;21790;42.668;23.298;2023-03-29T13:01:05;95138.31;;;14.54;19.24
35676;BME280;21790;42.668;23.298;2023-03-29T13:03:39;95125.28;;;14.90;19.69
35676;BME280;21790;42.668;23.298;2023-03-29T13:06:09;95141.03;;;14.78;19.33
35676;BME280;21790;42.668;23.298;2023-03-29T13:08:36;95133.84;;;14.72;19.46
35676;BME280;21790;42.668;23.298;2023-03-29T13:11:01;95135.38;;;14.73;19.41
35676;BME280;21790;42.668;23.298;2023-03-29T13:13:37;95134.97;;;14.65;19.26
35676;BME280;21790;42.668;23.298;2023-03-29T13:16:08;95132.22;;;14.41;18.73
35676;BME280;21790;42.668;23.298;2023-03-29T13:21:46;95118.03;;;14.15;19.13
35676;BME280;21790;42.668;23.298;2023-03-29T13:26:48;95129.28;;;13.97;19.46
35676;BME280;21790;42.668;23.298;2023-03-29T13:32:02;95124.25;;;14.10;18.79
35676;BME280;21790;42.668;23.298;2023-03-29T13:37:12;95120.47;;;13.99;19.08
35676;BME280;21790;42.668;23.298;2023-03-29T13:39:48;95113.59;;;14.09;19.77
35676;BME280;21790;42.668;23.298;2023-03-29T13:42:25;95122.25;;;14.11;19.62
35676;BME280;21790;42.668;23.298;2023-03-29T13:45:44;95118.53;;;13.90;19.52
35676;BME280;21790;42.668;23.298;2023-03-29T13:47:59;95123.06;;;14.26;18.80
35676;BME280;21790;42.668;23.298;2023-03-29T13:50:32;95111.31;;;14.07;19.04
35676;BME280;21790;42.668;23.298;2023-03-29T13:53:00;95106.63;;;14.37;19.04
35676;BME280;21790;42.668;23.298;2023-03-29T13:55:30;95108.81;;;14.09;18.02
35676;BME280;21790;42.668;23.298;2023-03-29T13:58:04;95103.16;;;14.04;18.65
35676;BME280;21790;42.668;23.298;2023-03-29T14:00:38;95110.66;;;13.89;18.77
35676;BME280;21790;42.668;23.298;2023-03-29T14:03:09;95113.13;;;14.34;18.24
35676;BME280;21790;42.668;23.298;2023-03-29T14:05:37;95112.25;;;14.67;18.78
35676;BME280;21790;42.668;23.298;2023-03-29T14:08:08;95110.03;;;14.85;18.18
35676;BME280;21790;42.668;23.298;2023-03-29T14:10:35;95126.44;;;14.69;17.84
35676;BME280;21790;42.668;23.298;2023-03-29T14:13:03;95119.91;;;14.72;18.09
35676;BME280;21790;42.668;23.298;2023-03-29T14:18:24;95121.25;;;14.23;18.55
35676;BME280;21790;42.668;23.298;2023-03-29T14:20:52;95120.38;;;14.32;18.01
35676;BME280;21790;42.668;23.298;2023-03-29T14:23:29;95120.59;;;14.04;17.79
35676;BME280;21790;42.668;23.298;2023-03-29T14:28:52;95121.38;;;14.96;34.16
35676;BME280;21790;42.668;23.298;2023-03-29T14:33:53;95124.81;;;15.06;18.49
35676;BME280;21790;42.668;23.298;2023-03-29T14:36:19;95126.81;;;14.91;18.74
35676;BME280;21790;42.668;23.298;2023-03-29T14:38:49;95122.44;;;14.99;18.75
35676;BME280;21790;42.668;23.298;2023-03-29T14:41:15;95129.72;;;14.82;18.61